createdAt,value
2019-05-01T00:00:21.411Z,24.45
2019-05-01T00:01:21.399Z,24.42
2019-05-01T00:02:21.397Z,24.41
2019-05-01T00:03:21.376Z,24.47
2019-05-01T00:04:21.365Z,24.44
2019-05-01T00:05:21.354Z,24.47
2019-05-01T00:06:21.344Z,24.38
2019-05-01T00:07:21.332Z,24.42
2019-05-01T00:08:21.351Z,24.41
2019-05-01T00:09:21.311Z,24.50
2019-05-01T00:10:21.300Z,24.44
2019-05-01T00:11:21.287Z,24.42
2019-05-01T00:12:21.276Z,24.42
2019-05-01T00:13:21.264Z,24.45
2019-05-01T00:14:21.263Z,24.42
2019-05-01T00:15:21.244Z,24.41
2019-05-01T00:16:21.235Z,24.39
2019-05-01T00:17:21.221Z,24.39
2019-05-01T00:18:21.210Z,24.42
2019-05-01T00:19:21.200Z,24.39
2019-05-01T00:20:21.195Z,24.45
2019-05-01T00:21:21.177Z,24.44
2019-05-01T00:22:21.166Z,24.42
2019-05-01T00:23:21.156Z,24.47
2019-05-01T00:24:21.143Z,24.39
2019-05-01T00:25:21.133Z,24.44
2019-05-01T00:26:21.143Z,24.39
2019-05-01T00:27:21.111Z,24.44
2019-05-01T00:28:21.100Z,24.38
2019-05-01T00:29:21.088Z,24.42
2019-05-01T00:30:29.684Z,24.35
2019-05-01T00:31:22.095Z,24.45
2019-05-01T00:32:21.056Z,24.42
2019-05-01T00:33:21.045Z,24.42
2019-05-01T00:34:21.034Z,24.52
2019-05-01T00:35:21.026Z,24.42
2019-05-01T00:36:21.011Z,24.38
2019-05-01T00:37:21.044Z,24.42
2019-05-01T00:38:20.989Z,24.39
2019-05-01T00:39:20.978Z,24.44
2019-05-01T00:40:20.968Z,24.50
2019-05-01T00:41:20.955Z,24.39
2019-05-01T00:42:20.992Z,24.44
2019-05-01T00:43:20.941Z,24.42
2019-05-01T00:44:20.924Z,24.34
2019-05-01T00:45:20.913Z,24.41
2019-05-01T00:46:20.905Z,24.42
2019-05-01T00:47:20.890Z,24.38
2019-05-01T00:48:20.883Z,24.44
2019-05-01T00:49:20.875Z,24.41
2019-05-01T00:50:20.857Z,24.44
2019-05-01T00:51:20.846Z,24.38
2019-05-01T00:52:20.839Z,24.47
2019-05-01T00:53:20.825Z,24.44
2019-05-01T00:54:20.813Z,24.41
2019-05-01T00:55:20.807Z,24.49
2019-05-01T00:56:20.791Z,24.42
2019-05-01T00:57:20.779Z,24.42
2019-05-01T00:58:20.770Z,24.38
2019-05-01T00:59:20.758Z,24.39
2019-05-01T01:00:20.748Z,24.41
2019-05-01T01:01:20.755Z,24.41
2019-05-01T01:02:20.723Z,24.39
2019-05-01T01:03:20.713Z,24.45
2019-05-01T01:04:20.704Z,24.41
2019-05-01T01:05:20.692Z,24.44
2019-05-01T01:06:20.682Z,24.38
2019-05-01T01:07:20.703Z,24.38
2019-05-01T01:08:20.657Z,24.37
2019-05-01T01:09:20.646Z,24.45
2019-05-01T01:10:20.635Z,24.39
2019-05-01T01:11:20.624Z,24.42
2019-05-01T01:12:20.612Z,24.45
2019-05-01T01:13:20.631Z,24.38
2019-05-01T01:14:20.593Z,24.38
2019-05-01T01:15:20.581Z,24.44
2019-05-01T01:16:20.569Z,24.38
2019-05-01T01:17:20.558Z,24.39
2019-05-01T01:18:20.548Z,24.52
2019-05-01T01:19:20.544Z,24.38
2019-05-01T01:20:20.524Z,24.42
2019-05-01T01:21:20.513Z,24.45
2019-05-01T01:22:20.503Z,24.45
2019-05-01T01:23:20.492Z,24.49
2019-05-01T01:24:20.480Z,24.53
2019-05-01T01:25:20.497Z,24.32
2019-05-01T01:26:20.458Z,24.41
2019-05-01T01:27:20.448Z,24.38
2019-05-01T01:28:20.436Z,24.42
2019-05-01T01:29:20.426Z,24.37
2019-05-01T01:30:20.414Z,24.41
2019-05-01T01:31:20.410Z,24.41
2019-05-01T01:32:20.391Z,24.41
2019-05-01T01:33:20.380Z,24.38
2019-05-01T01:34:20.370Z,24.49
2019-05-01T01:35:20.358Z,24.38
2019-05-01T01:36:20.347Z,24.52
2019-05-01T01:37:20.365Z,24.44
2019-05-01T01:38:20.324Z,24.38
2019-05-01T01:39:20.317Z,24.29
2019-05-01T01:40:20.303Z,24.32
2019-05-01T01:41:20.291Z,24.44
2019-05-01T01:42:20.280Z,24.37
2019-05-01T01:43:20.301Z,24.38
2019-05-01T01:44:20.270Z,24.41
2019-05-01T01:45:20.247Z,24.44
2019-05-01T01:46:20.237Z,24.38
2019-05-01T01:47:20.226Z,24.37
2019-05-01T01:48:20.214Z,24.41
2019-05-01T01:49:20.209Z,24.49
2019-05-01T01:50:20.192Z,24.32
2019-05-01T01:51:20.182Z,24.35
2019-05-01T01:52:20.171Z,24.37
2019-05-01T01:53:20.160Z,24.39
2019-05-01T01:54:20.151Z,24.47
2019-05-01T01:55:20.144Z,24.45
2019-05-01T01:56:20.126Z,24.38
2019-05-01T01:57:20.115Z,24.44
2019-05-01T01:58:20.103Z,24.37
2019-05-01T01:59:20.093Z,24.34
2019-05-01T02:00:20.082Z,24.29
2019-05-01T02:01:20.077Z,24.38
2019-05-01T02:02:20.059Z,24.39
2019-05-01T02:03:20.048Z,24.41
2019-05-01T02:04:20.037Z,24.41
2019-05-01T02:05:20.026Z,24.37
2019-05-01T02:06:20.015Z,24.42
2019-05-01T02:07:20.039Z,24.42
2019-05-01T02:08:19.998Z,24.32
2019-05-01T02:09:19.982Z,24.49
2019-05-01T02:10:20.004Z,24.49
2019-05-01T02:11:20.022Z,24.41
2019-05-01T02:12:19.949Z,24.38
2019-05-01T02:13:19.944Z,24.41
2019-05-01T02:14:19.926Z,24.31
2019-05-01T02:15:19.915Z,24.32
2019-05-01T02:16:19.904Z,24.34
2019-05-01T02:17:19.895Z,24.37
2019-05-01T02:18:19.883Z,24.47
2019-05-01T02:19:19.893Z,24.52
2019-05-01T02:20:19.860Z,24.26
2019-05-01T02:21:19.849Z,24.31
2019-05-01T02:22:19.840Z,24.37
2019-05-01T02:23:19.826Z,24.37
2019-05-01T02:24:19.816Z,24.37
2019-05-01T02:25:19.812Z,24.47
2019-05-01T02:26:19.795Z,24.37
2019-05-01T02:27:19.782Z,24.31
2019-05-01T02:28:19.771Z,24.37
2019-05-01T02:29:19.761Z,24.45
2019-05-01T02:30:19.750Z,24.32
2019-05-01T02:31:28.446Z,24.29
2019-05-01T02:32:20.728Z,24.37
2019-05-01T02:33:19.717Z,24.35
2019-05-01T02:34:19.709Z,24.37
2019-05-01T02:35:19.707Z,24.42
2019-05-01T02:36:19.687Z,24.37
2019-05-01T02:37:19.678Z,24.34
2019-05-01T02:38:19.663Z,24.35
2019-05-01T02:39:19.652Z,24.39
2019-05-01T02:40:19.639Z,24.31
2019-05-01T02:41:19.628Z,24.35
2019-05-01T02:42:19.617Z,24.31
2019-05-01T02:43:19.613Z,24.31
2019-05-01T02:44:19.596Z,24.32
2019-05-01T02:45:19.585Z,24.31
2019-05-01T02:46:19.573Z,24.42
2019-05-01T02:47:19.563Z,24.26
2019-05-01T02:48:19.550Z,24.34
2019-05-01T02:49:19.547Z,24.44
2019-05-01T02:50:19.528Z,24.37
2019-05-01T02:51:19.517Z,24.34
2019-05-01T02:52:19.507Z,24.34
2019-05-01T02:53:19.495Z,24.32
2019-05-01T02:54:19.484Z,24.29
2019-05-01T02:55:19.503Z,24.35
2019-05-01T02:56:19.464Z,24.35
2019-05-01T02:57:19.450Z,24.32
2019-05-01T02:58:19.440Z,24.32
2019-05-01T02:59:19.428Z,24.37
2019-05-01T03:00:19.417Z,24.38
2019-05-01T03:01:19.431Z,24.34
2019-05-01T03:02:19.397Z,24.31
2019-05-01T03:03:19.391Z,24.31
2019-05-01T03:04:19.373Z,24.37
2019-05-01T03:05:19.362Z,24.37
2019-05-01T03:06:19.351Z,24.29
2019-05-01T03:07:19.348Z,24.45
2019-05-01T03:08:19.329Z,24.29
2019-05-01T03:09:19.318Z,24.37
2019-05-01T03:10:19.307Z,24.42
2019-05-01T03:11:19.296Z,24.39
2019-05-01T03:12:19.288Z,24.35
2019-05-01T03:13:19.304Z,24.39
2019-05-01T03:14:19.263Z,24.34
2019-05-01T03:15:19.256Z,24.31
2019-05-01T03:16:19.241Z,24.32
2019-05-01T03:17:19.233Z,24.37
2019-05-01T03:18:19.219Z,24.35
2019-05-01T03:19:19.235Z,24.37
2019-05-01T03:20:19.197Z,24.32
2019-05-01T03:21:19.184Z,24.27
2019-05-01T03:22:19.174Z,24.37
2019-05-01T03:23:19.166Z,24.41
2019-05-01T03:24:19.153Z,24.39
2019-05-01T03:25:19.163Z,24.27
2019-05-01T03:26:19.131Z,24.27
2019-05-01T03:27:19.119Z,24.29
2019-05-01T03:28:19.108Z,24.35
2019-05-01T03:29:19.100Z,24.44
2019-05-01T03:30:19.095Z,24.34
2019-05-01T03:31:19.101Z,24.29
2019-05-01T03:32:19.894Z,24.34
2019-05-01T03:33:19.058Z,24.32
2019-05-01T03:34:19.041Z,24.34
2019-05-01T03:35:19.032Z,24.32
2019-05-01T03:36:19.019Z,24.34
2019-05-01T03:37:19.038Z,24.32
2019-05-01T03:38:18.997Z,24.41
2019-05-01T03:39:18.988Z,24.29
2019-05-01T03:40:18.977Z,24.38
2019-05-01T03:41:18.965Z,24.32
2019-05-01T03:42:18.953Z,24.37
2019-05-01T03:43:18.952Z,24.32
2019-05-01T03:44:18.929Z,24.42
2019-05-01T03:45:18.932Z,24.34
2019-05-01T03:46:18.923Z,24.34
2019-05-01T03:47:18.897Z,24.29
2019-05-01T03:48:18.887Z,24.32
2019-05-01T03:49:18.887Z,24.24
2019-05-01T03:50:18.864Z,24.31
2019-05-01T03:51:18.855Z,24.31
2019-05-01T03:52:18.842Z,24.34
2019-05-01T03:53:18.830Z,24.32
2019-05-01T03:54:18.823Z,24.32
2019-05-01T03:55:18.843Z,24.35
2019-05-01T03:56:18.805Z,24.35
2019-05-01T03:57:18.787Z,24.31
2019-05-01T03:58:18.780Z,24.35
2019-05-01T03:59:18.768Z,24.31
2019-05-01T04:00:18.753Z,24.27
2019-05-01T04:01:18.774Z,24.32
2019-05-01T04:02:32.811Z,24.34
2019-05-01T04:03:19.719Z,24.31
2019-05-01T04:04:18.709Z,24.34
2019-05-01T04:05:18.705Z,24.32
2019-05-01T04:06:18.690Z,24.37
2019-05-01T04:07:18.704Z,24.31
2019-05-01T04:08:18.666Z,24.32
2019-05-01T04:09:18.656Z,24.27
2019-05-01T04:10:18.644Z,24.37
2019-05-01T04:11:18.631Z,24.34
2019-05-01T04:12:18.620Z,24.31
2019-05-01T04:13:18.618Z,24.26
2019-05-01T04:14:18.600Z,24.35
2019-05-01T04:15:18.590Z,24.32
2019-05-01T04:16:18.577Z,24.35
2019-05-01T04:17:18.566Z,24.32
2019-05-01T04:18:18.556Z,24.32
2019-05-01T04:19:18.552Z,24.32
2019-05-01T04:20:18.533Z,24.38
2019-05-01T04:21:18.527Z,24.44
2019-05-01T04:22:18.512Z,24.26
2019-05-01T04:23:18.500Z,24.37
2019-05-01T04:24:18.491Z,24.37
2019-05-01T04:25:18.488Z,24.37
2019-05-01T04:26:18.469Z,24.32
2019-05-01T04:27:18.462Z,24.34
2019-05-01T04:28:18.446Z,24.38
2019-05-01T04:29:18.435Z,24.27
2019-05-01T04:30:18.426Z,24.34
2019-05-01T04:31:18.440Z,24.27
2019-05-01T04:32:18.416Z,24.29
2019-05-01T04:33:18.389Z,24.37
2019-05-01T04:34:18.378Z,24.27
2019-05-01T04:35:18.367Z,24.34
2019-05-01T04:36:18.356Z,24.35
2019-05-01T04:37:18.377Z,24.27
2019-05-01T04:38:18.336Z,24.35
2019-05-01T04:39:18.322Z,24.29
2019-05-01T04:40:19.199Z,24.39
2019-05-01T04:41:18.301Z,24.26
2019-05-01T04:42:18.290Z,24.41
2019-05-01T04:43:18.301Z,24.32
2019-05-01T04:44:18.268Z,24.32
2019-05-01T04:45:18.257Z,24.29
2019-05-01T04:46:18.253Z,24.38
2019-05-01T04:47:18.239Z,24.32
2019-05-01T04:48:18.224Z,24.26
2019-05-01T04:49:18.285Z,24.41
2019-05-01T04:50:18.201Z,24.39
2019-05-01T04:51:18.191Z,24.38
2019-05-01T04:52:18.187Z,24.37
2019-05-01T04:53:18.168Z,24.34
2019-05-01T04:54:18.159Z,24.41
2019-05-01T04:55:18.155Z,24.37
2019-05-01T04:56:18.133Z,24.29
2019-05-01T04:57:18.124Z,24.26
2019-05-01T04:58:18.114Z,24.34
2019-05-01T04:59:18.101Z,24.44
2019-05-01T05:00:18.094Z,24.31
2019-05-01T05:01:18.089Z,24.32
2019-05-01T05:02:18.068Z,24.32
2019-05-01T05:03:18.057Z,24.32
2019-05-01T05:04:18.046Z,24.27
2019-05-01T05:05:18.036Z,24.26
2019-05-01T05:06:18.023Z,24.34
2019-05-01T05:07:18.040Z,24.39
2019-05-01T05:08:18.001Z,24.31
2019-05-01T05:09:17.990Z,24.26
2019-05-01T05:10:17.987Z,24.35
2019-05-01T05:11:17.968Z,24.26
2019-05-01T05:12:17.957Z,24.29
2019-05-01T05:13:17.959Z,24.32
2019-05-01T05:14:17.937Z,24.31
2019-05-01T05:15:17.925Z,24.26
2019-05-01T05:16:17.914Z,24.31
2019-05-01T05:17:17.901Z,24.26
2019-05-01T05:18:17.891Z,24.35
2019-05-01T05:19:17.888Z,24.26
2019-05-01T05:20:17.870Z,24.32
2019-05-01T05:21:17.857Z,24.31
2019-05-01T05:22:17.850Z,24.34
2019-05-01T05:23:17.836Z,24.32
2019-05-01T05:24:17.825Z,24.31
2019-05-01T05:25:17.820Z,24.32
2019-05-01T05:26:17.803Z,24.35
2019-05-01T05:27:17.791Z,24.32
2019-05-01T05:28:17.780Z,24.32
2019-05-01T05:29:17.770Z,24.32
2019-05-01T05:30:17.758Z,24.35
2019-05-01T05:31:17.755Z,24.27
2019-05-01T05:32:17.739Z,24.35
2019-05-01T05:33:18.886Z,24.41
2019-05-01T05:34:18.259Z,24.32
2019-05-01T05:35:17.718Z,24.38
2019-05-01T05:36:17.691Z,24.26
2019-05-01T05:37:17.687Z,24.34
2019-05-01T05:38:17.670Z,24.32
2019-05-01T05:39:17.660Z,24.26
2019-05-01T05:40:17.647Z,24.37
2019-05-01T05:41:17.636Z,24.26
2019-05-01T05:42:17.625Z,24.29
2019-05-01T05:43:17.648Z,24.35
2019-05-01T05:44:17.603Z,24.26
2019-05-01T05:45:17.592Z,24.29
2019-05-01T05:46:17.581Z,24.29
2019-05-01T05:47:17.571Z,24.35
2019-05-01T05:48:17.558Z,24.37
2019-05-01T05:49:17.578Z,24.29
2019-05-01T05:50:17.537Z,24.34
2019-05-01T05:51:17.526Z,24.32
2019-05-01T05:52:17.515Z,24.29
2019-05-01T05:53:17.504Z,24.31
2019-05-01T05:54:17.492Z,24.31
2019-05-01T05:55:17.502Z,24.35
2019-05-01T05:56:17.471Z,24.27
2019-05-01T05:57:17.459Z,24.29
2019-05-01T05:58:17.448Z,24.31
2019-05-01T05:59:17.437Z,24.29
2019-05-01T06:00:17.426Z,24.37
2019-05-01T06:01:17.422Z,24.24
2019-05-01T06:02:17.404Z,24.35
2019-05-01T06:03:17.393Z,24.38
2019-05-01T06:04:17.382Z,24.38
2019-05-01T06:05:17.371Z,24.26
2019-05-01T06:06:17.360Z,24.32
2019-05-01T06:07:17.356Z,24.34
2019-05-01T06:08:17.337Z,24.32
2019-05-01T06:09:17.326Z,24.39
2019-05-01T06:10:18.562Z,24.31
2019-05-01T06:11:18.303Z,24.38
2019-05-01T06:12:17.292Z,24.34
2019-05-01T06:13:17.961Z,24.42
2019-05-01T06:14:17.270Z,24.32
2019-05-01T06:15:17.260Z,24.38
2019-05-01T06:16:17.427Z,24.27
2019-05-01T06:17:17.238Z,24.32
2019-05-01T06:18:17.227Z,24.41
2019-05-01T06:19:17.245Z,24.31
2019-05-01T06:20:20.754Z,24.26
2019-05-01T06:21:18.193Z,24.34
2019-05-01T06:22:17.182Z,24.31
2019-05-01T06:23:20.721Z,24.38
2019-05-01T06:24:18.189Z,24.37
2019-05-01T06:25:22.444Z,24.35
2019-05-01T06:26:18.137Z,24.26
2019-05-01T06:27:17.127Z,24.41
2019-05-01T06:28:19.826Z,24.39
2019-05-01T06:29:18.105Z,24.38
2019-05-01T06:30:17.100Z,24.29
2019-05-01T06:31:17.797Z,24.38
2019-05-01T06:32:18.071Z,24.34
2019-05-01T06:33:17.061Z,24.39
2019-05-01T06:34:17.050Z,24.34
2019-05-01T06:35:17.040Z,24.44
2019-05-01T06:36:17.035Z,24.37
2019-05-01T06:37:20.881Z,24.39
2019-05-01T06:38:18.005Z,24.37
2019-05-01T06:39:16.994Z,24.42
2019-05-01T06:40:18.784Z,24.42
2019-05-01T06:41:17.997Z,24.44
2019-05-01T06:42:17.020Z,24.41
2019-05-01T06:43:20.109Z,24.38
2019-05-01T06:44:17.939Z,24.42
2019-05-01T06:45:17.922Z,24.39
2019-05-01T06:46:16.917Z,24.31
2019-05-01T06:47:16.915Z,24.31
2019-05-01T06:48:17.879Z,24.38
2019-05-01T06:49:16.883Z,24.31
2019-05-01T06:50:16.872Z,24.34
2019-05-01T06:51:17.679Z,24.34
2019-05-01T06:52:16.850Z,24.26
2019-05-01T06:53:16.860Z,24.37
2019-05-01T06:54:17.709Z,24.32
2019-05-01T06:55:16.822Z,24.41
2019-05-01T06:56:16.806Z,24.44
2019-05-01T06:57:16.794Z,24.37
2019-05-01T06:58:20.367Z,24.27
2019-05-01T06:59:16.801Z,24.34
2019-05-01T07:00:16.762Z,24.44
2019-05-01T07:01:19.229Z,24.41
2019-05-01T07:02:17.738Z,24.38
2019-05-01T07:03:16.729Z,24.32
2019-05-01T07:04:16.718Z,24.35
2019-05-01T07:05:16.716Z,24.37
2019-05-01T07:06:16.696Z,24.38
2019-05-01T07:07:24.949Z,24.32
2019-05-01T07:08:24.453Z,24.38
2019-05-01T07:09:27.739Z,24.31
2019-05-01T07:10:29.754Z,24.41
2019-05-01T07:11:17.659Z,24.37
2019-05-01T07:12:16.629Z,24.44
2019-05-01T07:13:16.621Z,24.38
2019-05-01T07:14:17.639Z,24.37
2019-05-01T07:15:16.599Z,24.31
2019-05-01T07:16:16.594Z,24.45
2019-05-01T07:17:16.575Z,24.29
2019-05-01T07:18:18.825Z,24.34
2019-05-01T07:19:17.554Z,24.35
2019-05-01T07:20:18.089Z,24.38
2019-05-01T07:21:16.530Z,24.38
2019-05-01T07:22:16.546Z,24.41
2019-05-01T07:23:17.397Z,24.37
2019-05-01T07:24:16.496Z,24.32
2019-05-01T07:25:16.487Z,24.32
2019-05-01T07:26:16.477Z,24.45
2019-05-01T07:27:18.866Z,24.41
2019-05-01T07:28:17.472Z,24.37
2019-05-01T07:29:16.442Z,24.38
2019-05-01T07:30:19.633Z,24.41
2019-05-01T07:31:16.420Z,24.41
2019-05-01T07:32:16.423Z,24.35
2019-05-01T07:33:17.813Z,24.35
2019-05-01T07:34:17.041Z,24.38
2019-05-01T07:35:16.381Z,24.42
2019-05-01T07:36:16.557Z,24.32
2019-05-01T07:37:16.353Z,24.41
2019-05-01T07:38:16.359Z,24.38
2019-05-01T07:39:16.358Z,24.32
2019-05-01T07:40:16.341Z,24.38
2019-05-01T07:41:16.310Z,24.41
2019-05-01T07:42:16.300Z,24.39
2019-05-01T07:43:19.007Z,24.37
2019-05-01T07:44:17.275Z,24.38
2019-05-01T07:45:16.266Z,24.37
2019-05-01T07:46:18.433Z,24.35
2019-05-01T07:47:16.249Z,24.37
2019-05-01T07:48:16.231Z,24.35
2019-05-01T07:49:17.705Z,24.38
2019-05-01T07:50:16.211Z,24.38
2019-05-01T07:51:16.199Z,24.31
2019-05-01T07:52:17.212Z,24.32
2019-05-01T07:53:16.176Z,24.39
2019-05-01T07:54:16.166Z,24.32
2019-05-01T07:55:18.146Z,24.37
2019-05-01T07:56:17.280Z,24.32
2019-05-01T07:57:16.132Z,24.38
2019-05-01T07:58:17.966Z,24.38
2019-05-01T07:59:16.110Z,24.34
2019-05-01T08:00:16.104Z,24.41
2019-05-01T08:01:18.462Z,24.41
2019-05-01T08:02:16.076Z,24.38
2019-05-01T08:03:16.066Z,24.41
2019-05-01T08:04:18.468Z,24.34
2019-05-01T08:05:17.042Z,24.38
2019-05-01T08:06:21.007Z,24.37
2019-05-01T08:07:17.021Z,24.42
2019-05-01T08:08:16.013Z,24.35
2019-05-01T08:09:16.461Z,24.42
2019-05-01T08:10:16.009Z,24.38
2019-05-01T08:11:15.978Z,24.44
2019-05-01T08:12:18.918Z,24.35
2019-05-01T08:13:16.957Z,24.42
2019-05-01T08:14:16.633Z,24.39
2019-05-01T08:15:15.933Z,24.35
2019-05-01T08:16:15.955Z,24.37
2019-05-01T08:17:17.936Z,24.41
2019-05-01T08:18:15.901Z,24.45
2019-05-01T08:19:15.889Z,24.41
2019-05-01T08:20:16.835Z,24.47
2019-05-01T08:21:15.867Z,24.45
2019-05-01T08:22:15.879Z,24.41
2019-05-01T08:23:15.846Z,24.37
2019-05-01T08:24:18.015Z,24.45
2019-05-01T08:25:16.821Z,24.44
2019-05-01T08:26:15.813Z,24.49
2019-05-01T08:27:20.142Z,24.41
2019-05-01T08:28:16.817Z,24.47
2019-05-01T08:29:15.780Z,24.50
2019-05-01T08:30:17.444Z,24.44
2019-05-01T08:31:15.757Z,24.41
2019-05-01T08:32:15.745Z,24.42
2019-05-01T08:33:16.065Z,24.44
2019-05-01T08:34:15.730Z,24.49
2019-05-01T08:35:15.713Z,24.45
2019-05-01T08:36:15.702Z,24.49
2019-05-01T08:37:17.922Z,24.44
2019-05-01T08:38:16.677Z,24.47
2019-05-01T08:39:15.670Z,24.45
2019-05-01T08:40:20.085Z,24.47
2019-05-01T08:41:15.645Z,24.54
2019-05-01T08:42:15.637Z,24.53
2019-05-01T08:43:18.001Z,24.53
2019-05-01T08:44:15.612Z,24.53
2019-05-01T08:45:15.601Z,24.57
2019-05-01T08:46:16.485Z,24.50
2019-05-01T08:47:15.580Z,24.50
2019-05-01T08:48:15.575Z,24.49
2019-05-01T08:49:15.556Z,24.53
2019-05-01T08:50:15.547Z,24.59
2019-05-01T08:51:15.535Z,24.59
2019-05-01T08:52:15.531Z,24.50
2019-05-01T08:53:18.108Z,24.49
2019-05-01T08:54:16.501Z,24.59
2019-05-01T08:55:15.494Z,24.59
2019-05-01T08:56:16.909Z,24.59
2019-05-01T08:57:16.501Z,24.57
2019-05-01T08:58:15.957Z,24.57
2019-05-01T08:59:15.448Z,24.50
2019-05-01T09:00:15.442Z,24.63
2019-05-01T09:01:16.395Z,24.50
2019-05-01T09:02:15.414Z,24.53
2019-05-01T09:03:18.546Z,24.59
2019-05-01T09:04:15.393Z,24.54
2019-05-01T09:05:28.289Z,24.53
2019-05-01T09:06:16.367Z,24.52
2019-05-01T09:07:19.063Z,24.60
2019-05-01T09:08:16.364Z,24.57
2019-05-01T09:09:15.337Z,24.52
2019-05-01T09:10:16.958Z,24.52
2019-05-01T09:11:16.316Z,24.56
2019-05-01T09:12:15.302Z,24.56
2019-05-01T09:13:18.826Z,24.57
2019-05-01T09:14:16.309Z,24.63
2019-05-01T09:15:15.269Z,24.54
2019-05-01T09:16:15.258Z,24.67
2019-05-01T09:17:15.246Z,24.54
2019-05-01T09:18:15.236Z,24.54
2019-05-01T09:19:15.225Z,24.59
2019-05-01T09:20:16.770Z,24.56
2019-05-01T09:21:15.205Z,24.61
2019-05-01T09:22:15.192Z,24.53
2019-05-01T09:23:16.181Z,24.57
2019-05-01T09:24:15.170Z,24.56
2019-05-01T09:25:15.159Z,24.60
2019-05-01T09:26:16.280Z,24.61
2019-05-01T09:27:15.137Z,24.61
2019-05-01T09:28:15.126Z,24.59
2019-05-01T09:29:16.000Z,24.59
2019-05-01T09:30:15.103Z,24.54
2019-05-01T09:31:15.092Z,24.67
2019-05-01T09:32:15.087Z,24.63
2019-05-01T09:33:15.071Z,24.57
2019-05-01T09:34:19.225Z,24.57
2019-05-01T09:35:16.339Z,24.59
2019-05-01T09:36:15.038Z,24.64
2019-05-01T09:37:15.026Z,24.60
2019-05-01T09:38:15.023Z,24.69
2019-05-01T09:39:15.004Z,24.57
2019-05-01T09:40:14.993Z,24.56
2019-05-01T09:41:14.982Z,24.60
2019-05-01T09:42:23.196Z,24.57
2019-05-01T09:43:15.975Z,24.64
2019-05-01T09:44:14.949Z,24.59
2019-05-01T09:45:14.939Z,24.57
2019-05-01T09:46:14.927Z,24.61
2019-05-01T09:47:14.916Z,24.61
2019-05-01T09:48:14.909Z,24.64
2019-05-01T09:49:18.228Z,24.63
2019-05-01T09:50:14.883Z,24.63
2019-05-01T09:51:14.872Z,24.60
2019-05-01T09:52:18.818Z,24.63
2019-05-01T09:53:15.848Z,24.60
2019-05-01T09:54:14.839Z,24.69
2019-05-01T09:55:17.839Z,24.59
2019-05-01T09:56:15.815Z,24.63
2019-05-01T09:57:14.807Z,24.61
2019-05-01T09:58:14.795Z,24.64
2019-05-01T09:59:17.496Z,24.59
2019-05-01T10:00:14.773Z,24.67
2019-05-01T10:01:14.770Z,24.61
2019-05-01T10:02:14.751Z,24.68
2019-05-01T10:03:16.881Z,24.64
2019-05-01T10:04:14.729Z,24.68
2019-05-01T10:05:14.718Z,24.73
2019-05-01T10:06:17.133Z,24.68
2019-05-01T10:07:14.717Z,24.71
2019-05-01T10:08:14.686Z,24.67
2019-05-01T10:09:17.060Z,24.69
2019-05-01T10:10:14.663Z,24.67
2019-05-01T10:11:14.654Z,24.67
2019-05-01T10:12:14.645Z,24.63
2019-05-01T10:13:17.725Z,24.68
2019-05-01T10:14:15.617Z,24.71
2019-05-01T10:15:14.609Z,24.71
2019-05-01T10:16:14.598Z,24.68
2019-05-01T10:17:14.586Z,24.71
2019-05-01T10:18:14.574Z,24.60
2019-05-01T10:19:14.587Z,24.67
2019-05-01T10:20:14.553Z,24.77
2019-05-01T10:21:14.541Z,24.73
2019-05-01T10:22:14.530Z,24.64
2019-05-01T10:23:15.039Z,24.77
2019-05-01T10:24:14.508Z,24.82
2019-05-01T10:25:14.504Z,24.76
2019-05-01T10:26:14.486Z,24.75
2019-05-01T10:27:17.033Z,24.79
2019-05-01T10:28:17.389Z,24.83
2019-05-01T10:29:14.454Z,24.69
2019-05-01T10:30:14.442Z,24.83
2019-05-01T10:31:14.460Z,24.82
2019-05-01T10:32:16.847Z,24.85
2019-05-01T10:33:15.408Z,24.87
2019-05-01T10:34:14.398Z,24.82
2019-05-01T10:35:19.414Z,24.83
2019-05-01T10:36:18.860Z,24.79
2019-05-01T10:37:15.364Z,24.85
2019-05-01T10:38:14.357Z,24.80
2019-05-01T10:39:16.065Z,24.88
2019-05-01T10:40:15.330Z,24.90
2019-05-01T10:41:14.321Z,24.80
2019-05-01T10:42:14.329Z,24.87
2019-05-01T10:43:14.298Z,24.85
2019-05-01T10:44:14.288Z,24.85
2019-05-01T10:45:14.277Z,24.87
2019-05-01T10:46:14.267Z,24.85
2019-05-01T10:47:14.255Z,24.88
2019-05-01T10:48:14.263Z,24.91
2019-05-01T10:49:14.232Z,24.83
2019-05-01T10:50:14.221Z,24.79
2019-05-01T10:51:14.211Z,24.87
2019-05-01T10:52:14.705Z,24.94
2019-05-01T10:53:14.188Z,24.92
2019-05-01T10:54:14.185Z,24.90
2019-05-01T10:55:14.220Z,24.92
2019-05-01T10:56:14.159Z,24.90
2019-05-01T10:57:14.145Z,24.91
2019-05-01T10:58:18.387Z,25.00
2019-05-01T10:59:15.156Z,24.95
2019-05-01T11:00:14.113Z,24.97
2019-05-01T11:01:14.101Z,24.91
2019-05-01T11:02:14.089Z,24.97
2019-05-01T11:03:14.078Z,25.00
2019-05-01T11:04:14.067Z,24.97
2019-05-01T11:05:14.086Z,25.10
2019-05-01T11:06:14.046Z,25.02
2019-05-01T11:07:14.034Z,25.06
2019-05-01T11:08:14.026Z,25.07
2019-05-01T11:09:14.012Z,25.02
2019-05-01T11:10:14.002Z,25.01
2019-05-01T11:11:13.999Z,25.06
2019-05-01T11:12:13.979Z,25.07
2019-05-01T11:13:13.968Z,25.10
2019-05-01T11:14:13.958Z,25.02
2019-05-01T11:15:13.946Z,25.06
2019-05-01T11:16:13.935Z,25.12
2019-05-01T11:17:13.931Z,25.02
2019-05-01T11:18:13.914Z,25.07
2019-05-01T11:19:13.901Z,25.06
2019-05-01T11:20:13.902Z,25.10
2019-05-01T11:21:13.882Z,25.06
2019-05-01T11:22:13.868Z,25.09
2019-05-01T11:23:13.879Z,25.09
2019-05-01T11:24:13.846Z,25.13
2019-05-01T11:25:13.836Z,25.10
2019-05-01T11:26:13.824Z,25.16
2019-05-01T11:27:13.813Z,25.13
2019-05-01T11:28:13.802Z,25.10
2019-05-01T11:29:13.811Z,25.17
2019-05-01T11:30:13.781Z,25.16
2019-05-01T11:31:13.826Z,25.15
2019-05-01T11:32:13.759Z,25.19
2019-05-01T11:33:13.748Z,25.20
2019-05-01T11:34:13.736Z,25.20
2019-05-01T11:35:13.746Z,25.20
2019-05-01T11:36:13.715Z,25.17
2019-05-01T11:37:13.703Z,25.15
2019-05-01T11:38:13.695Z,25.16
2019-05-01T11:39:13.682Z,25.17
2019-05-01T11:40:13.670Z,25.16
2019-05-01T11:41:13.679Z,25.20
2019-05-01T11:42:13.647Z,25.22
2019-05-01T11:43:13.640Z,25.13
2019-05-01T11:44:13.626Z,25.24
2019-05-01T11:45:13.614Z,25.16
2019-05-01T11:46:13.604Z,25.22
2019-05-01T11:47:13.599Z,25.27
2019-05-01T11:48:13.581Z,25.25
2019-05-01T11:49:13.576Z,25.32
2019-05-01T11:50:13.564Z,25.24
2019-05-01T11:51:13.592Z,25.28
2019-05-01T11:52:13.538Z,25.32
2019-05-01T11:53:13.556Z,25.31
2019-05-01T11:54:13.521Z,25.27
2019-05-01T11:55:13.504Z,25.24
2019-05-01T11:56:13.493Z,25.24
2019-05-01T11:57:13.482Z,25.32
2019-05-01T11:58:13.471Z,25.31
2019-05-01T11:59:13.479Z,25.32
2019-05-01T12:00:13.448Z,25.35
2019-05-01T12:01:13.437Z,25.34
2019-05-01T12:02:13.428Z,25.37
2019-05-01T12:03:13.416Z,25.35
2019-05-01T12:04:13.404Z,25.31
2019-05-01T12:05:13.423Z,25.38
2019-05-01T12:06:22.659Z,25.28
2019-05-01T12:07:14.370Z,25.32
2019-05-01T12:08:13.362Z,25.47
2019-05-01T12:09:13.349Z,25.43
2019-05-01T12:10:14.443Z,25.34
2019-05-01T12:11:13.348Z,25.35
2019-05-01T12:12:13.317Z,25.47
2019-05-01T12:13:13.305Z,25.47
2019-05-01T12:14:13.294Z,25.49
2019-05-01T12:15:13.294Z,25.49
2019-05-01T12:16:13.273Z,25.47
2019-05-01T12:17:13.267Z,25.42
2019-05-01T12:18:13.252Z,25.43
2019-05-01T12:19:13.239Z,25.46
2019-05-01T12:20:13.231Z,25.47
2019-05-01T12:21:13.217Z,25.50
2019-05-01T12:22:13.208Z,25.53
2019-05-01T12:23:13.223Z,25.59
2019-05-01T12:24:13.186Z,25.53
2019-05-01T12:25:13.174Z,25.54
2019-05-01T12:26:13.162Z,25.57
2019-05-01T12:27:13.151Z,25.57
2019-05-01T12:28:13.144Z,25.53
2019-05-01T12:29:13.161Z,25.57
2019-05-01T12:30:13.120Z,25.56
2019-05-01T12:31:13.110Z,25.61
2019-05-01T12:32:13.097Z,25.64
2019-05-01T12:33:13.085Z,25.61
2019-05-01T12:34:13.077Z,25.67
2019-05-01T12:35:13.069Z,25.68
2019-05-01T12:36:13.052Z,25.64
2019-05-01T12:37:13.041Z,25.67
2019-05-01T12:38:13.032Z,25.71
2019-05-01T12:39:13.019Z,25.72
2019-05-01T12:40:13.008Z,25.69
2019-05-01T12:41:13.028Z,25.68
2019-05-01T12:42:12.987Z,25.69
2019-05-01T12:43:12.976Z,25.75
2019-05-01T12:44:12.964Z,25.68
2019-05-01T12:45:12.953Z,25.71
2019-05-01T12:46:12.943Z,25.71
2019-05-01T12:47:12.958Z,25.68
2019-05-01T12:48:12.921Z,25.68
2019-05-01T12:49:15.739Z,25.67
2019-05-01T12:50:12.899Z,25.77
2019-05-01T12:51:12.889Z,25.69
2019-05-01T12:52:12.876Z,25.75